sensor_id;sensor_type;location;lat;lon;timestamp;temperature;humidity
28947;DHT22;16052;50.930;5.326;2023-04-05T00:00:38;10.10;1.00
28947;DHT22;16052;50.930;5.326;2023-04-05T00:03:03;10.40;1.00
28947;DHT22;16052;50.930;5.326;2023-04-05T00:05:30;10.40;1.00
28947;DHT22;16052;50.930;5.326;2023-04-05T00:07:59;10.40;1.00
28947;DHT22;16052;50.930;5.326;2023-04-05T00:10:29;10.20;1.00
28947;DHT22;16052;50.930;5.326;2023-04-05T00:12:57;10.20;1.00
28947;DHT22;16052;50.930;5.326;2023-04-05T00:15:23;10.20;1.00
28947;DHT22;16052;50.930;5.326;2023-04-05T00:17:49;10.20;1.00
28947;DHT22;16052;50.930;5.326;2023-04-05T00:20:15;10.00;1.00
28947;DHT22;16052;50.930;5.326;2023-04-05T00:22:41;10.00;1.00
28947;DHT22;16052;50.930;5.326;2023-04-05T00:25:11;10.10;1.00
28947;DHT22;16052;50.930;5.326;2023-04-05T00:27:38;10.10;1.00
28947;DHT22;16052;50.930;5.326;2023-04-05T00:30:04;10.10;1.00
28947;DHT22;16052;50.930;5.326;2023-04-05T00:32:31;10.00;1.00
28947;DHT22;16052;50.930;5.326;2023-04-05T00:34:57;9.90;1.00
28947;DHT22;16052;50.930;5.326;2023-04-05T00:37:22;9.90;1.00
28947;DHT22;16052;50.930;5.326;2023-04-05T00:39:48;10.00;1.00
28947;DHT22;16052;50.930;5.326;2023-04-05T00:42:14;9.80;1.00
28947;DHT22;16052;50.930;5.326;2023-04-05T00:44:39;9.60;1.00
28947;DHT22;16052;50.930;5.326;2023-04-05T00:47:05;9.60;1.00
28947;DHT22;16052;50.930;5.326;2023-04-05T00:49:33;9.30;1.00
28947;DHT22;16052;50.930;5.326;2023-04-05T00:51:59;9.20;1.00
28947;DHT22;16052;50.930;5.326;2023-04-05T00:54:32;9.40;1.00
28947;DHT22;16052;50.930;5.326;2023-04-05T00:56:59;9.60;1.00
28947;DHT22;16052;50.930;5.326;2023-04-05T00:59:25;9.50;1.00
28947;DHT22;16052;50.930;5.326;2023-04-05T01:02:01;9.60;1.00
28947;DHT22;16052;50.930;5.326;2023-04-05T01:04:31;9.50;1.00
28947;DHT22;16052;50.930;5.326;2023-04-05T01:12:12;9.40;1.00
28947;DHT22;16052;50.930;5.326;2023-04-05T01:14:48;9.40;1.00
28947;DHT22;16052;50.930;5.326;2023-04-05T01:17:15;9.10;1.00
28947;DHT22;16052;50.930;5.326;2023-04-05T01:19:51;9.00;1.00
28947;DHT22;16052;50.930;5.326;2023-04-05T01:25:33;8.80;1.00
28947;DHT22;16052;50.930;5.326;2023-04-05T01:31:48;8.70;1.00
28947;DHT22;16052;50.930;5.326;2023-04-05T01:36:53;8.80;1.00
28947;DHT22;16052;50.930;5.326;2023-04-05T01:39:20;8.50;1.00
28947;DHT22;16052;50.930;5.326;2023-04-05T01:41:46;8.50;1.00
28947;DHT22;16052;50.930;5.326;2023-04-05T01:44:11;8.30;1.00
28947;DHT22;16052;50.930;5.326;2023-04-05T01:46:37;8.40;1.00
28947;DHT22;16052;50.930;5.326;2023-04-05T01:49:03;8.40;1.00
28947;DHT22;16052;50.930;5.326;2023-04-05T01:51:29;8.20;1.00
28947;DHT22;16052;50.930;5.326;2023-04-05T01:53:56;8.30;1.00
28947;DHT22;16052;50.930;5.326;2023-04-05T01:56:21;8.60;1.00
28947;DHT22;16052;50.930;5.326;2023-04-05T01:58:48;8.60;1.00
28947;DHT22;16052;50.930;5.326;2023-04-05T02:01:14;8.50;1.00
28947;DHT22;16052;50.930;5.326;2023-04-05T02:03:39;8.30;1.00
28947;DHT22;16052;50.930;5.326;2023-04-05T02:06:05;8.10;1.00
28947;DHT22;16052;50.930;5.326;2023-04-05T02:08:31;8.00;1.00
28947;DHT22;16052;50.930;5.326;2023-04-05T02:10:56;8.00;1.00
28947;DHT22;16052;50.930;5.326;2023-04-05T02:13:22;8.00;1.00
28947;DHT22;16052;50.930;5.326;2023-04-05T02:15:48;8.20;1.00
28947;DHT22;16052;50.930;5.326;2023-04-05T02:18:15;8.10;1.00
28947;DHT22;16052;50.930;5.326;2023-04-05T02:20:41;8.00;1.00
28947;DHT22;16052;50.930;5.326;2023-04-05T02:23:07;7.80;1.00
28947;DHT22;16052;50.930;5.326;2023-04-05T02:25:33;7.70;4.90
28947;DHT22;16052;50.930;5.326;2023-04-05T02:27:58;7.50;10.30
28947;DHT22;16052;50.930;5.326;2023-04-05T02:30:24;7.40;15.50
28947;DHT22;16052;50.930;5.326;2023-04-05T02:32:53;7.50;14.30
28947;DHT22;16052;50.930;5.326;2023-04-05T02:35:20;7.40;14.40
28947;DHT22;16052;50.930;5.326;2023-04-05T02:37:46;7.40;15.60
28947;DHT22;16052;50.930;5.326;2023-04-05T02:40:13;7.40;14.50
28947;DHT22;16052;50.930;5.326;2023-04-05T02:42:39;7.30;18.50
28947;DHT22;16052;50.930;5.326;2023-04-05T02:45:05;7.30;21.00
28947;DHT22;16052;50.930;5.326;2023-04-05T02:47:33;7.30;21.20
28947;DHT22;16052;50.930;5.326;2023-04-05T02:49:59;7.60;10.10
28947;DHT22;16052;50.930;5.326;2023-04-05T02:52:24;7.70;2.20
28947;DHT22;16052;50.930;5.326;2023-04-05T02:54:50;7.70;1.00
28947;DHT22;16052;50.930;5.326;2023-04-05T02:57:17;7.70;1.00
28947;DHT22;16052;50.930;5.326;2023-04-05T02:59:43;7.90;1.00
28947;DHT22;16052;50.930;5.326;2023-04-05T03:02:09;7.90;1.00
28947;DHT22;16052;50.930;5.326;2023-04-05T03:04:35;7.90;1.00
28947;DHT22;16052;50.930;5.326;2023-04-05T03:07:01;7.80;1.00
28947;DHT22;16052;50.930;5.326;2023-04-05T03:09:31;7.80;1.00
28947;DHT22;16052;50.930;5.326;2023-04-05T03:12:03;7.70;1.00
28947;DHT22;16052;50.930;5.326;2023-04-05T03:14:30;7.80;1.00
28947;DHT22;16052;50.930;5.326;2023-04-05T03:16:56;7.80;1.00
28947;DHT22;16052;50.930;5.326;2023-04-05T03:19:23;7.80;1.00
28947;DHT22;16052;50.930;5.326;2023-04-05T03:21:48;7.70;1.00
28947;DHT22;16052;50.930;5.326;2023-04-05T03:24:14;7.70;1.00
28947;DHT22;16052;50.930;5.326;2023-04-05T03:26:50;7.50;1.00
28947;DHT22;16052;50.930;5.326;2023-04-05T03:29:16;7.50;1.00
28947;DHT22;16052;50.930;5.326;2023-04-05T03:31:42;7.30;4.30
28947;DHT22;16052;50.930;5.326;2023-04-05T03:34:07;7.30;3.80
28947;DHT22;16052;50.930;5.326;2023-04-05T03:36:33;7.10;11.70
28947;DHT22;16052;50.930;5.326;2023-04-05T03:39:12;7.00;17.90
28947;DHT22;16052;50.930;5.326;2023-04-05T03:41:39;7.00;17.50
28947;DHT22;16052;50.930;5.326;2023-04-05T03:44:08;7.10;16.50
28947;DHT22;16052;50.930;5.326;2023-04-05T03:46:33;7.00;16.80
28947;DHT22;16052;50.930;5.326;2023-04-05T03:49:03;7.00;18.30
28947;DHT22;16052;50.930;5.326;2023-04-05T03:51:28;7.20;16.10
28947;DHT22;16052;50.930;5.326;2023-04-05T03:53:55;7.20;12.30
28947;DHT22;16052;50.930;5.326;2023-04-05T03:56:21;7.40;5.90
28947;DHT22;16052;50.930;5.326;2023-04-05T03:58:46;7.20;12.00
28947;DHT22;16052;50.930;5.326;2023-04-05T04:01:12;7.20;14.90
28947;DHT22;16052;50.930;5.326;2023-04-05T04:03:38;7.10;16.10
28947;DHT22;16052;50.930;5.326;2023-04-05T04:06:05;7.20;17.40
28947;DHT22;16052;50.930;5.326;2023-04-05T04:08:30;7.20;16.80
28947;DHT22;16052;50.930;5.326;2023-04-05T04:10:56;7.20;16.00
28947;DHT22;16052;50.930;5.326;2023-04-05T04:13:22;7.30;13.00
28947;DHT22;16052;50.930;5.326;2023-04-05T04:15:50;7.40;9.20
28947;DHT22;16052;50.930;5.326;2023-04-05T04:18:15;7.60;3.60
28947;DHT22;16052;50.930;5.326;2023-04-05T04:20:41;7.50;4.70
28947;DHT22;16052;50.930;5.326;2023-04-05T04:23:07;7.40;8.40
28947;DHT22;16052;50.930;5.326;2023-04-05T04:25:35;7.10;12.40
28947;DHT22;16052;50.930;5.326;2023-04-05T04:28:03;6.90;21.70
28947;DHT22;16052;50.930;5.326;2023-04-05T04:30:28;6.90;25.40
28947;DHT22;16052;50.930;5.326;2023-04-05T04:32:54;6.80;25.50
28947;DHT22;16052;50.930;5.326;2023-04-05T04:37:55;5.70;56.30
28947;DHT22;16052;50.930;5.326;2023-04-05T04:40:31;5.70;60.50
28947;DHT22;16052;50.930;5.326;2023-04-05T04:43:04;5.60;59.90
28947;DHT22;16052;50.930;5.326;2023-04-05T04:45:29;5.60;64.40
28947;DHT22;16052;50.930;5.326;2023-04-05T04:47:59;5.90;57.90
28947;DHT22;16052;50.930;5.326;2023-04-05T04:50:25;6.10;53.10
28947;DHT22;16052;50.930;5.326;2023-04-05T04:52:52;6.10;49.30
28947;DHT22;16052;50.930;5.326;2023-04-05T04:55:18;5.60;62.20
28947;DHT22;16052;50.930;5.326;2023-04-05T04:57:51;5.90;59.80
28947;DHT22;16052;50.930;5.326;2023-04-05T05:00:17;6.00;55.00
28947;DHT22;16052;50.930;5.326;2023-04-05T05:02:43;6.00;57.40
28947;DHT22;16052;50.930;5.326;2023-04-05T05:05:09;6.10;57.90
28947;DHT22;16052;50.930;5.326;2023-04-05T05:07:37;6.10;49.90
28947;DHT22;16052;50.930;5.326;2023-04-05T05:10:03;6.20;46.80
28947;DHT22;16052;50.930;5.326;2023-04-05T05:12:29;6.00;47.00
28947;DHT22;16052;50.930;5.326;2023-04-05T05:14:56;5.70;54.30
28947;DHT22;16052;50.930;5.326;2023-04-05T05:17:21;5.20;65.80
28947;DHT22;16052;50.930;5.326;2023-04-05T05:19:48;5.30;69.00
28947;DHT22;16052;50.930;5.326;2023-04-05T05:22:13;5.40;68.50
28947;DHT22;16052;50.930;5.326;2023-04-05T05:24:39;5.50;66.90
28947;DHT22;16052;50.930;5.326;2023-04-05T05:27:05;5.70;63.60
28947;DHT22;16052;50.930;5.326;2023-04-05T05:29:31;5.80;64.20
28947;DHT22;16052;50.930;5.326;2023-04-05T05:31:57;6.00;56.00
28947;DHT22;16052;50.930;5.326;2023-04-05T05:34:22;5.90;54.30
28947;DHT22;16052;50.930;5.326;2023-04-05T05:36:49;5.80;54.40
28947;DHT22;16052;50.930;5.326;2023-04-05T05:39:15;5.70;57.30
28947;DHT22;16052;50.930;5.326;2023-04-05T05:41:43;5.60;57.30
28947;DHT22;16052;50.930;5.326;2023-04-05T05:44:09;5.60;60.10
28947;DHT22;16052;50.930;5.326;2023-04-05T05:46:34;5.30;62.90
28947;DHT22;16052;50.930;5.326;2023-04-05T05:49:00;4.90;69.60
28947;DHT22;16052;50.930;5.326;2023-04-05T05:51:26;5.00;73.80
28947;DHT22;16052;50.930;5.326;2023-04-05T05:53:51;5.20;68.10
28947;DHT22;16052;50.930;5.326;2023-04-05T05:56:17;5.20;67.90
28947;DHT22;16052;50.930;5.326;2023-04-05T05:58:43;5.30;57.60
28947;DHT22;16052;50.930;5.326;2023-04-05T06:01:09;5.30;61.10
28947;DHT22;16052;50.930;5.326;2023-04-05T06:03:36;5.50;56.40
28947;DHT22;16052;50.930;5.326;2023-04-05T06:06:02;5.80;52.10
28947;DHT22;16052;50.930;5.326;2023-04-05T06:08:30;6.20;41.50
28947;DHT22;16052;50.930;5.326;2023-04-05T06:10:57;6.40;33.80
28947;DHT22;16052;50.930;5.326;2023-04-05T06:13:23;6.20;38.60
28947;DHT22;16052;50.930;5.326;2023-04-05T06:15:48;6.40;35.70
28947;DHT22;16052;50.930;5.326;2023-04-05T06:18:14;6.40;32.90
28947;DHT22;16052;50.930;5.326;2023-04-05T06:20:41;6.40;34.90
28947;DHT22;16052;50.930;5.326;2023-04-05T06:23:09;6.60;30.70
28947;DHT22;16052;50.930;5.326;2023-04-05T06:25:35;6.60;29.00
28947;DHT22;16052;50.930;5.326;2023-04-05T06:28:04;6.50;34.90
28947;DHT22;16052;50.930;5.326;2023-04-05T06:30:31;6.60;37.90
28947;DHT22;16052;50.930;5.326;2023-04-05T06:32:58;6.70;44.90
28947;DHT22;16052;50.930;5.326;2023-04-05T06:35:24;6.80;50.20
28947;DHT22;16052;50.930;5.326;2023-04-05T06:37:50;6.90;41.50
28947;DHT22;16052;50.930;5.326;2023-04-05T06:40:17;7.10;32.10
28947;DHT22;16052;50.930;5.326;2023-04-05T06:42:43;7.10;24.90
28947;DHT22;16052;50.930;5.326;2023-04-05T06:45:09;7.00;24.30
28947;DHT22;16052;50.930;5.326;2023-04-05T06:47:39;6.80;33.70
28947;DHT22;16052;50.930;5.326;2023-04-05T06:50:07;6.80;39.60
28947;DHT22;16052;50.930;5.326;2023-04-05T06:52:33;6.80;39.90
28947;DHT22;16052;50.930;5.326;2023-04-05T06:54:59;6.90;37.10
28947;DHT22;16052;50.930;5.326;2023-04-05T06:57:25;6.90;39.40
28947;DHT22;16052;50.930;5.326;2023-04-05T06:59:52;7.10;31.00
28947;DHT22;16052;50.930;5.326;2023-04-05T07:02:19;7.30;24.00
28947;DHT22;16052;50.930;5.326;2023-04-05T07:04:44;7.40;25.20
28947;DHT22;16052;50.930;5.326;2023-04-05T07:07:11;7.50;21.50
28947;DHT22;16052;50.930;5.326;2023-04-05T07:09:37;7.50;20.50
28947;DHT22;16052;50.930;5.326;2023-04-05T07:12:04;7.50;21.90
28947;DHT22;16052;50.930;5.326;2023-04-05T07:14:31;7.50;24.00
28947;DHT22;16052;50.930;5.326;2023-04-05T07:16:57;7.40;25.30
28947;DHT22;16052;50.930;5.326;2023-04-05T07:19:23;7.40;30.90
28947;DHT22;16052;50.930;5.326;2023-04-05T07:21:49;7.50;29.30
28947;DHT22;16052;50.930;5.326;2023-04-05T07:24:15;7.50;30.80
28947;DHT22;16052;50.930;5.326;2023-04-05T07:26:41;7.50;35.50
28947;DHT22;16052;50.930;5.326;2023-04-05T07:29:08;7.50;35.00
28947;DHT22;16052;50.930;5.326;2023-04-05T07:31:34;7.60;32.60
28947;DHT22;16052;50.930;5.326;2023-04-05T07:34:00;7.70;21.40
28947;DHT22;16052;50.930;5.326;2023-04-05T07:36:26;7.90;2.90
28947;DHT22;16052;50.930;5.326;2023-04-05T07:38:56;7.90;8.20
28947;DHT22;16052;50.930;5.326;2023-04-05T07:41:23;7.70;15.40
28947;DHT22;16052;50.930;5.326;2023-04-05T07:43:49;7.80;4.00
28947;DHT22;16052;50.930;5.326;2023-04-05T07:46:15;7.80;5.20
28947;DHT22;16052;50.930;5.326;2023-04-05T07:48:41;7.90;6.10
28947;DHT22;16052;50.930;5.326;2023-04-05T07:51:08;7.90;4.60
28947;DHT22;16052;50.930;5.326;2023-04-05T07:53:35;8.00;3.00
28947;DHT22;16052;50.930;5.326;2023-04-05T07:56:05;8.10;1.00
28947;DHT22;16052;50.930;5.326;2023-04-05T07:58:31;8.20;1.40
28947;DHT22;16052;50.930;5.326;2023-04-05T08:01:01;8.40;1.00
28947;DHT22;16052;50.930;5.326;2023-04-05T08:03:28;8.40;1.00
28947;DHT22;16052;50.930;5.326;2023-04-05T08:05:54;8.50;1.00
28947;DHT22;16052;50.930;5.326;2023-04-05T08:08:21;8.60;1.00
28947;DHT22;16052;50.930;5.326;2023-04-05T08:10:47;8.80;1.00
28947;DHT22;16052;50.930;5.326;2023-04-05T08:13:12;8.90;1.00
28947;DHT22;16052;50.930;5.326;2023-04-05T08:15:39;9.00;1.00
28947;DHT22;16052;50.930;5.326;2023-04-05T08:18:05;9.00;1.00
28947;DHT22;16052;50.930;5.326;2023-04-05T08:20:31;9.00;1.00
28947;DHT22;16052;50.930;5.326;2023-04-05T08:22:57;9.20;1.00
28947;DHT22;16052;50.930;5.326;2023-04-05T08:25:22;9.40;1.00
28947;DHT22;16052;50.930;5.326;2023-04-05T08:27:48;9.50;1.00
28947;DHT22;16052;50.930;5.326;2023-04-05T08:30:14;9.60;1.00
28947;DHT22;16052;50.930;5.326;2023-04-05T08:32:41;9.60;1.00
28947;DHT22;16052;50.930;5.326;2023-04-05T08:35:06;9.60;1.00
28947;DHT22;16052;50.930;5.326;2023-04-05T08:37:35;9.70;1.00
28947;DHT22;16052;50.930;5.326;2023-04-05T08:40:02;9.80;1.00
28947;DHT22;16052;50.930;5.326;2023-04-05T08:42:51;9.90;1.00
28947;DHT22;16052;50.930;5.326;2023-04-05T08:45:21;10.10;1.00
28947;DHT22;16052;50.930;5.326;2023-04-05T08:47:51;10.10;1.00
28947;DHT22;16052;50.930;5.326;2023-04-05T08:50:18;10.20;1.00
28947;DHT22;16052;50.930;5.326;2023-04-05T08:52:45;10.30;1.00
28947;DHT22;16052;50.930;5.326;2023-04-05T08:55:15;10.40;1.00
28947;DHT22;16052;50.930;5.326;2023-04-05T08:57:43;10.40;1.00
28947;DHT22;16052;50.930;5.326;2023-04-05T09:00:14;10.30;1.00
28947;DHT22;16052;50.930;5.326;2023-04-05T09:02:42;10.40;1.00
28947;DHT22;16052;50.930;5.326;2023-04-05T09:05:09;10.40;1.00
28947;DHT22;16052;50.930;5.326;2023-04-05T09:07:37;10.40;1.00
28947;DHT22;16052;50.930;5.326;2023-04-05T09:10:04;10.50;1.00
28947;DHT22;16052;50.930;5.326;2023-04-05T09:12:31;10.50;1.00
28947;DHT22;16052;50.930;5.326;2023-04-05T09:14:59;10.60;1.00
28947;DHT22;16052;50.930;5.326;2023-04-05T09:17:25;10.70;1.00
28947;DHT22;16052;50.930;5.326;2023-04-05T09:19:52;10.80;1.00
28947;DHT22;16052;50.930;5.326;2023-04-05T09:22:18;10.80;1.00
28947;DHT22;16052;50.930;5.326;2023-04-05T09:24:44;10.90;1.00
28947;DHT22;16052;50.930;5.326;2023-04-05T09:27:15;11.10;1.00
28947;DHT22;16052;50.930;5.326;2023-04-05T09:29:45;11.20;1.00
28947;DHT22;16052;50.930;5.326;2023-04-05T09:32:12;11.30;99.90
28947;DHT22;16052;50.930;5.326;2023-04-05T09:34:39;11.50;99.90
28947;DHT22;16052;50.930;5.326;2023-04-05T09:37:16;11.60;99.90
28947;DHT22;16052;50.930;5.326;2023-04-05T09:39:43;11.70;99.90
28947;DHT22;16052;50.930;5.326;2023-04-05T09:42:14;11.60;99.90
28947;DHT22;16052;50.930;5.326;2023-04-05T09:44:58;11.60;99.90
28947;DHT22;16052;50.930;5.326;2023-04-05T09:47:30;11.70;99.90
28947;DHT22;16052;50.930;5.326;2023-04-05T09:50:26;11.80;99.90
28947;DHT22;16052;50.930;5.326;2023-04-05T09:53:07;11.90;99.90
28947;DHT22;16052;50.930;5.326;2023-04-05T09:55:34;11.90;99.90
28947;DHT22;16052;50.930;5.326;2023-04-05T09:58:00;11.90;99.90
28947;DHT22;16052;50.930;5.326;2023-04-05T10:00:28;12.10;99.90
28947;DHT22;16052;50.930;5.326;2023-04-05T10:02:56;12.20;99.90
28947;DHT22;16052;50.930;5.326;2023-04-05T10:05:24;12.30;99.90
28947;DHT22;16052;50.930;5.326;2023-04-05T10:07:51;12.60;99.90
28947;DHT22;16052;50.930;5.326;2023-04-05T10:10:17;12.60;99.90
28947;DHT22;16052;50.930;5.326;2023-04-05T10:12:44;12.70;99.90
28947;DHT22;16052;50.930;5.326;2023-04-05T10:15:11;12.80;99.90
28947;DHT22;16052;50.930;5.326;2023-04-05T10:17:51;12.80;99.90
28947;DHT22;16052;50.930;5.326;2023-04-05T10:20:19;12.70;99.90
28947;DHT22;16052;50.930;5.326;2023-04-05T10:23:07;12.70;99.90
28947;DHT22;16052;50.930;5.326;2023-04-05T10:28:35;12.80;99.90
28947;DHT22;16052;50.930;5.326;2023-04-05T10:31:24;12.90;99.90
28947;DHT22;16052;50.930;5.326;2023-04-05T10:41:53;13.30;99.90
28947;DHT22;16052;50.930;5.326;2023-04-05T10:44:19;13.30;99.90
28947;DHT22;16052;50.930;5.326;2023-04-05T10:46:45;13.30;99.90
28947;DHT22;16052;50.930;5.326;2023-04-05T10:49:24;13.30;99.90
28947;DHT22;16052;50.930;5.326;2023-04-05T10:51:52;13.20;99.90
28947;DHT22;16052;50.930;5.326;2023-04-05T10:54:19;13.20;99.90
28947;DHT22;16052;50.930;5.326;2023-04-05T10:56:45;13.30;99.90
28947;DHT22;16052;50.930;5.326;2023-04-05T10:59:12;13.40;99.90
28947;DHT22;16052;50.930;5.326;2023-04-05T11:01:38;13.50;99.90
28947;DHT22;16052;50.930;5.326;2023-04-05T11:04:15;13.40;99.90
28947;DHT22;16052;50.930;5.326;2023-04-05T11:06:41;13.30;99.90
28947;DHT22;16052;50.930;5.326;2023-04-05T11:09:19;13.50;99.90
28947;DHT22;16052;50.930;5.326;2023-04-05T11:11:51;13.60;99.90
28947;DHT22;16052;50.930;5.326;2023-04-05T11:16:46;13.80;99.90
28947;DHT22;16052;50.930;5.326;2023-04-05T11:19:16;14.00;99.90
28947;DHT22;16052;50.930;5.326;2023-04-05T11:21:42;14.10;99.90
28947;DHT22;16052;50.930;5.326;2023-04-05T11:24:10;14.30;99.90
28947;DHT22;16052;50.930;5.326;2023-04-05T11:29:14;14.50;99.90
28947;DHT22;16052;50.930;5.326;2023-04-05T11:32:10;14.60;99.90
28947;DHT22;16052;50.930;5.326;2023-04-05T11:34:36;14.60;99.90
28947;DHT22;16052;50.930;5.326;2023-04-05T11:37:02;14.60;55.90
28947;DHT22;16052;50.930;5.326;2023-04-05T11:39:29;14.60;1.00
28947;DHT22;16052;50.930;5.326;2023-04-05T11:42:12;14.70;1.00
28947;DHT22;16052;50.930;5.326;2023-04-05T11:44:46;14.70;1.00
28947;DHT22;16052;50.930;5.326;2023-04-05T11:47:15;14.80;1.00
28947;DHT22;16052;50.930;5.326;2023-04-05T11:49:41;14.90;1.00
28947;DHT22;16052;50.930;5.326;2023-04-05T11:54:37;15.00;1.00
28947;DHT22;16052;50.930;5.326;2023-04-05T11:57:04;15.00;1.00
28947;DHT22;16052;50.930;5.326;2023-04-05T11:59:31;15.10;1.00
28947;DHT22;16052;50.930;5.326;2023-04-05T12:02:01;15.10;1.00
28947;DHT22;16052;50.930;5.326;2023-04-05T12:04:28;15.20;1.00
28947;DHT22;16052;50.930;5.326;2023-04-05T12:07:16;15.20;1.00
28947;DHT22;16052;50.930;5.326;2023-04-05T12:12:38;15.30;99.90
28947;DHT22;16052;50.930;5.326;2023-04-05T12:15:06;15.50;99.90
28947;DHT22;16052;50.930;5.326;2023-04-05T12:17:49;15.60;99.90
28947;DHT22;16052;50.930;5.326;2023-04-05T12:20:22;15.70;99.90
28947;DHT22;16052;50.930;5.326;2023-04-05T12:22:52;15.70;99.90
28947;DHT22;16052;50.930;5.326;2023-04-05T12:25:19;15.70;99.90
28947;DHT22;16052;50.930;5.326;2023-04-05T12:27:45;15.80;99.90
28947;DHT22;16052;50.930;5.326;2023-04-05T12:30:12;15.80;99.90
28947;DHT22;16052;50.930;5.326;2023-04-05T12:32:52;15.80;99.90
28947;DHT22;16052;50.930;5.326;2023-04-05T12:35:21;16.00;99.90
28947;DHT22;16052;50.930;5.326;2023-04-05T12:37:51;16.10;99.90
28947;DHT22;16052;50.930;5.326;2023-04-05T12:40:21;16.20;99.90
28947;DHT22;16052;50.930;5.326;2023-04-05T12:42:47;16.10;99.90
28947;DHT22;16052;50.930;5.326;2023-04-05T12:45:13;16.00;99.90
28947;DHT22;16052;50.930;5.326;2023-04-05T12:47:51;16.10;96.80
28947;DHT22;16052;50.930;5.326;2023-04-05T12:50:18;16.10;97.30
28947;DHT22;16052;50.930;5.326;2023-04-05T12:52:57;16.10;99.90
28947;DHT22;16052;50.930;5.326;2023-04-05T12:55:25;16.20;99.90
28947;DHT22;16052;50.930;5.326;2023-04-05T12:57:58;16.20;72.40
28947;DHT22;16052;50.930;5.326;2023-04-05T13:00:26;16.30;9.50
28947;DHT22;16052;50.930;5.326;2023-04-05T13:02:53;16.20;22.30
28947;DHT22;16052;50.930;5.326;2023-04-05T13:05:20;16.10;9.70
28947;DHT22;16052;50.930;5.326;2023-04-05T13:07:46;16.10;26.60
28947;DHT22;16052;50.930;5.326;2023-04-05T13:10:12;16.00;45.00
28947;DHT22;16052;50.930;5.326;2023-04-05T13:12:38;15.80;14.50
28947;DHT22;16052;50.930;5.326;2023-04-05T13:15:04;15.80;13.10
28947;DHT22;16052;50.930;5.326;2023-04-05T13:17:30;15.40;3.30
28947;DHT22;16052;50.930;5.326;2023-04-05T13:19:55;15.20;1.00
28947;DHT22;16052;50.930;5.326;2023-04-05T13:22:21;15.20;13.00
28947;DHT22;16052;50.930;5.326;2023-04-05T13:24:46;15.00;34.40
28947;DHT22;16052;50.930;5.326;2023-04-05T13:27:12;14.80;56.40
28947;DHT22;16052;50.930;5.326;2023-04-05T13:29:38;14.80;23.10
28947;DHT22;16052;50.930;5.326;2023-04-05T13:32:03;14.60;26.90
28947;DHT22;16052;50.930;5.326;2023-04-05T13:34:29;14.70;32.10
28947;DHT22;16052;50.930;5.326;2023-04-05T13:36:55;14.80;65.80
28947;DHT22;16052;50.930;5.326;2023-04-05T13:39:21;15.00;99.90
28947;DHT22;16052;50.930;5.326;2023-04-05T13:41:47;15.30;99.90
28947;DHT22;16052;50.930;5.326;2023-04-05T13:44:13;15.50;99.90
28947;DHT22;16052;50.930;5.326;2023-04-05T13:46:38;15.70;99.90
28947;DHT22;16052;50.930;5.326;2023-04-05T13:49:04;15.80;99.90
28947;DHT22;16052;50.930;5.326;2023-04-05T13:51:31;15.80;99.90
28947;DHT22;16052;50.930;5.326;2023-04-05T13:53:58;15.70;99.90
28947;DHT22;16052;50.930;5.326;2023-04-05T13:56:24;15.80;99.90
28947;DHT22;16052;50.930;5.326;2023-04-05T13:58:50;15.80;99.90
28947;DHT22;16052;50.930;5.326;2023-04-05T14:01:16;15.90;99.90
28947;DHT22;16052;50.930;5.326;2023-04-05T14:03:41;15.80;99.90
28947;DHT22;16052;50.930;5.326;2023-04-05T14:06:07;15.60;99.90
28947;DHT22;16052;50.930;5.326;2023-04-05T14:08:32;15.60;99.90
28947;DHT22;16052;50.930;5.326;2023-04-05T14:10:58;15.40;99.90
28947;DHT22;16052;50.930;5.326;2023-04-05T14:13:24;15.40;99.90
28947;DHT22;16052;50.930;5.326;2023-04-05T14:15:50;15.40;99.90
28947;DHT22;16052;50.930;5.326;2023-04-05T14:18:16;15.60;99.90
28947;DHT22;16052;50.930;5.326;2023-04-05T14:20:42;15.70;99.90
28947;DHT22;16052;50.930;5.326;2023-04-05T14:23:08;15.80;99.90
28947;DHT22;16052;50.930;5.326;2023-04-05T14:25:33;15.70;99.90
28947;DHT22;16052;50.930;5.326;2023-04-05T14:27:59;15.70;99.90
28947;DHT22;16052;50.930;5.326;2023-04-05T14:30:25;15.50;99.90
28947;DHT22;16052;50.930;5.326;2023-04-05T14:32:51;15.30;99.90
28947;DHT22;16052;50.930;5.326;2023-04-05T14:35:16;15.20;99.90
28947;DHT22;16052;50.930;5.326;2023-04-05T14:37:42;15.30;99.90
28947;DHT22;16052;50.930;5.326;2023-04-05T14:40:08;15.20;99.90
28947;DHT22;16052;50.930;5.326;2023-04-05T14:42:34;15.30;99.90
28947;DHT22;16052;50.930;5.326;2023-04-05T14:44:59;15.30;99.90
28947;DHT22;16052;50.930;5.326;2023-04-05T14:47:25;15.30;99.90
28947;DHT22;16052;50.930;5.326;2023-04-05T14:49:51;15.30;99.90
28947;DHT22;16052;50.930;5.326;2023-04-05T14:52:17;15.30;99.90
28947;DHT22;16052;50.930;5.326;2023-04-05T14:54:42;15.20;99.90
28947;DHT22;16052;50.930;5.326;2023-04-05T14:57:09;15.10;99.90
28947;DHT22;16052;50.930;5.326;2023-04-05T14:59:35;15.20;99.90
28947;DHT22;16052;50.930;5.326;2023-04-05T15:02:01;15.40;99.90
28947;DHT22;16052;50.930;5.326;2023-04-05T15:04:27;15.60;99.90
28947;DHT22;16052;50.930;5.326;2023-04-05T15:06:53;15.60;99.90
28947;DHT22;16052;50.930;5.326;2023-04-05T15:09:19;15.60;99.90
28947;DHT22;16052;50.930;5.326;2023-04-05T15:11:44;15.50;99.90
28947;DHT22;16052;50.930;5.326;2023-04-05T15:14:11;15.60;99.10
28947;DHT22;16052;50.930;5.326;2023-04-05T15:16:36;15.50;53.20
28947;DHT22;16052;50.930;5.326;2023-04-05T15:19:02;15.60;19.60
28947;DHT22;16052;50.930;5.326;2023-04-05T15:21:28;15.50;1.00
28947;DHT22;16052;50.930;5.326;2023-04-05T15:23:54;15.50;1.00
28947;DHT22;16052;50.930;5.326;2023-04-05T15:26:20;15.50;1.00
28947;DHT22;16052;50.930;5.326;2023-04-05T15:28:46;15.30;1.00
28947;DHT22;16052;50.930;5.326;2023-04-05T15:31:12;15.20;15.20
28947;DHT22;16052;50.930;5.326;2023-04-05T15:33:37;15.30;4.60
28947;DHT22;16052;50.930;5.326;2023-04-05T15:36:03;15.50;52.60
28947;DHT22;16052;50.930;5.326;2023-04-05T15:38:29;15.50;24.00
28947;DHT22;16052;50.930;5.326;2023-04-05T15:40:54;15.40;9.40
28947;DHT22;16052;50.930;5.326;2023-04-05T15:43:22;15.30;14.60
28947;DHT22;16052;50.930;5.326;2023-04-05T15:45:48;15.30;1.70
28947;DHT22;16052;50.930;5.326;2023-04-05T15:48:16;15.40;1.00
28947;DHT22;16052;50.930;5.326;2023-04-05T15:50:41;15.20;1.00
28947;DHT22;16052;50.930;5.326;2023-04-05T15:53:08;14.90;1.00
28947;DHT22;16052;50.930;5.326;2023-04-05T15:55:33;15.00;1.00
28947;DHT22;16052;50.930;5.326;2023-04-05T15:57:59;14.90;1.00
28947;DHT22;16052;50.930;5.326;2023-04-05T16:00:25;14.70;1.00
28947;DHT22;16052;50.930;5.326;2023-04-05T16:02:52;14.80;1.00
28947;DHT22;16052;50.930;5.326;2023-04-05T16:05:17;14.80;1.00
28947;DHT22;16052;50.930;5.326;2023-04-05T16:07:43;14.80;3.70
28947;DHT22;16052;50.930;5.326;2023-04-05T16:10:10;14.90;8.00
28947;DHT22;16052;50.930;5.326;2023-04-05T16:12:36;15.00;30.00
28947;DHT22;16052;50.930;5.326;2023-04-05T16:15:02;15.10;1.00
28947;DHT22;16052;50.930;5.326;2023-04-05T16:17:28;15.10;1.00
28947;DHT22;16052;50.930;5.326;2023-04-05T16:19:54;15.10;1.00
28947;DHT22;16052;50.930;5.326;2023-04-05T16:22:19;15.10;1.00
28947;DHT22;16052;50.930;5.326;2023-04-05T16:24:45;15.00;1.00